^^
Datos históricos de la estación: Murcia-Puente Tocinos
Diario Informe para Junio 12, 2019 Unidades:  Ingés    Métrico   Ambas
Diario Semanal Mensual Anual
  Máxima: Mínima: Promedio:
Temperatura: 70.2 °F 60.4 °F 65.1 °F
Punto de rocio: 66.9 °F 58.8 °F 62.4 °F
Humedad: 97% 79% 91%
Velocidad viento: 13.7mph 0mph 5mph
Racha viento: 26.5mph - -
Viento- - SSE
Presión: 30.2 in 30.1 in -
Precipitación: 3.46 in    
 
 
Tabla de datos para Junio 12, 2019
Hora Temperatura Punto de rocio Presión Viento Velocidad viento Racha viento Humedad Intensidad lluvia(por hora) Nubes
00:04 65.5 °F 59.7 °F 30.1 in SO 4.7 mph 8.1 mph 82% 0 in
00:09 65.5 °F 59.7 °F 30.1 in SO 4.7 mph 8.5 mph 81.6% 0 in
00:14 65.5 °F 59.5 °F 30.1 in SO 4.7 mph 9.2 mph 81% 0 in
00:19 65.5 °F 59.2 °F 30.1 in SO 4.8 mph 8.1 mph 80.2% 0 in
00:24 65.7 °F 59.4 °F 30.1 in SO 5.2 mph 8 mph 80% 0 in
00:29 65.7 °F 59.4 °F 30.1 in SO 5 mph 7.4 mph 80% 0 in
00:34 65.7 °F 59.4 °F 30.1 in SSO 3.6 mph 9.7 mph 80% 0 in
00:39 65.5 °F 59 °F 30.1 in SSO 4 mph 10 mph 79.4% 0 in
00:44 65.5 °F 58.8 °F 30.1 in SSO 5.9 mph 9.7 mph 79% 0 in
00:49 65.5 °F 58.8 °F 30.1 in SSO 5.9 mph 10.4 mph 79% 0 in
00:54 65.5 °F 58.8 °F 30.1 in SSO 5.9 mph 10 mph 79% 0 in
00:59 65.5 °F 58.8 °F 30.1 in SSO 5.8 mph 9 mph 79% 0 in
01:04 65.7 °F 59 °F 30.1 in Sur 5.4 mph 8.5 mph 79% 0 in
01:09 65.7 °F 59.2 °F 30.1 in SSE 5.4 mph 9.2 mph 79.7% 0 in
01:14 65.7 °F 59.4 °F 30.1 in Sur 5.4 mph 9 mph 80% 0 in
01:19 65.7 °F 59.4 °F 30.1 in SSO 5.1 mph 7 mph 80% 0.02 in
01:24 65.5 °F 59.5 °F 30.1 in SSO 3.6 mph 6 mph 81% 0.05 in
01:26 65.3 °F 59.4 °F 30.1 in SSO 3.6 mph 6.9 mph 81% 0.05 in
01:39 64 °F 59.2 °F 30.1 in OSO 5.8 mph 11.5 mph 84% 0.1 in
01:44 64 °F 59.2 °F 30.1 in SO 6.9 mph 12 mph 84.6% 0.11 in
01:49 63.9 °F 59.5 °F 30.1 in SSO 6.6 mph 9.7 mph 85.6% 0.12 in
01:54 63.7 °F 59.4 °F 30.1 in SSO 5.4 mph 10.4 mph 86.1% 0.13 in
01:59 63.5 °F 59.5 °F 30.1 in SO 5.8 mph 12.7 mph 87% 0.14 in
02:04 63.3 °F 59.4 °F 30.1 in SO 7.4 mph 13 mph 87% 0.14 in
02:09 63.1 °F 59.4 °F 30.1 in SO 7.2 mph 13 mph 87.1% 0.14 in
02:14 63.1 °F 59.4 °F 30.1 in SO 6.4 mph 13 mph 87.8% 0.15 in
02:19 63 °F 59.4 °F 30.1 in SO 6.6 mph 13 mph 88% 0.16 in
02:24 63 °F 59.5 °F 30.1 in SO 7.4 mph 13 mph 88.4% 0.14 in
02:29 62.8 °F 59.5 °F 30.1 in SO 7.2 mph 10.7 mph 89% 0.13 in
02:34 62.8 °F 59.7 °F 30.1 in SSO 6.2 mph 11 mph 89.5% 0.13 in
02:39 62.8 °F 59.7 °F 30.1 in Sur 6.1 mph 9.2 mph 90% 0.13 in
02:44 62.6 °F 59.7 °F 30.1 in SSO 5.4 mph 10.2 mph 90.1% 0.16 in
02:49 62.6 °F 59.9 °F 30.1 in SO 5.5 mph 10.4 mph 91% 0.17 in
02:54 62.4 °F 59.7 °F 30.1 in SO 6.2 mph 17.3 mph 91.1% 0.2 in
02:59 62.2 °F 59.9 °F 30.1 in SO 6.6 mph 17 mph 92% 0.2 in
03:04 62.1 °F 59.7 °F 30.1 in SO 8.1 mph 16.1 mph 92% 0.22 in
03:09 62.1 °F 59.7 °F 30.1 in SO 8.1 mph 16 mph 92.3% 0.25 in
03:14 61.9 °F 59.9 °F 30.1 in Sur 8.1 mph 15 mph 93% 0.26 in
03:19 61.9 °F 59.7 °F 30.1 in Sur 8.1 mph 15 mph 93% 0.3 in
03:24 61.7 °F 59.7 °F 30.1 in Sur 8.5 mph 15 mph 93% 0.35 in
03:29 61.5 °F 59.5 °F 30.1 in SSE 8.8 mph 20.1 mph 93% 0.41 in
03:34 61.3 °F 59.4 °F 30.1 in SSE 10 mph 21 mph 93.4% 0.45 in
03:39 61.2 °F 59.5 °F 30.1 in SSE 10.3 mph 21 mph 94% 0.54 in
03:44 61 °F 59.2 °F 30.1 in Sur 11.8 mph 21.9 mph 94% 0.66 in
03:49 60.6 °F 59 °F 30.1 in SSO 12 mph 22 mph 94% 0.76 in
03:54 60.6 °F 58.8 °F 30.1 in SSO 13 mph 21 mph 94% 0.8 in
03:59 60.4 °F 59 °F 30.1 in SSO 12.6 mph 18.4 mph 94.7% 0.82 in
04:04 60.4 °F 59 °F 30.1 in SSO 11.2 mph 18 mph 95% 0.86 in
04:09 60.4 °F 59 °F 30.1 in SO 10.9 mph 20.8 mph 95% 0.85 in
04:14 60.4 °F 59 °F 30.1 in SO 9.2 mph 21 mph 95% 0.84 in
04:19 60.4 °F 59 °F 30.1 in SO 9.3 mph 18 mph 95% 0.82 in
04:24 60.4 °F 59 °F 30.1 in SO 9.7 mph 12.3 mph 95% 0.76 in
04:29 60.4 °F 59 °F 30.1 in OSO 9.3 mph 13 mph 95% 0.69 in
04:34 60.4 °F 59 °F 30.1 in OSO 7.6 mph 12 mph 95% 0.63 in
04:39 60.4 °F 59.2 °F 30.1 in SSO 7.2 mph 12 mph 94.9% 0.56 in
04:44 60.6 °F 59 °F 30.1 in SO 5.4 mph 13 mph 94.5% 0.43 in
04:49 60.6 °F 58.8 °F 30.1 in Sur 5.4 mph 13 mph 94% 0.28 in
04:54 60.6 °F 58.8 °F 30.1 in SO 5.2 mph 10.4 mph 94% 0.17 in
04:59 60.6 °F 58.8 °F 30.1 in SSE 5.2 mph 10 mph 94% 0.09 in
05:04 60.6 °F 58.8 °F 30.1 in ENE 5.2 mph 7 mph 94% 0.06 in
05:09 60.6 °F 59 °F 30.1 in NE 4.7 mph 5 mph 94% 0.01 in
05:14 60.8 °F 59 °F 30.1 in North 2 mph 5 mph 94% 0 in
05:19 60.6 °F 58.8 °F 30.1 in NO 2.1 mph 5.9 mph 94% 0 in
05:24 60.6 °F 58.8 °F 30.1 in NO 2.9 mph 6 mph 94% 0 in
05:29 60.6 °F 58.8 °F 30.1 in NO 2.7 mph 5 mph 94% 0 in
05:34 60.6 °F 58.8 °F 30.1 in Oeste 1.8 mph 4.6 mph 94% 0 in
05:39 60.6 °F 58.8 °F 30.1 in OSO 1.8 mph 5 mph 94% 0 in
05:44 60.6 °F 58.8 °F 30.1 in Sur 1.8 mph 4.6 mph 94% 0 in
05:49 60.6 °F 58.8 °F 30.1 in Sur 1.9 mph 5 mph 94% 0 in
05:54 60.6 °F 58.8 °F 30.1 in Oeste 2 mph 3.6 mph 94% 0 in
05:59 60.6 °F 59 °F 30.1 in NNO 2 mph 4 mph 94% 0 in
06:04 60.8 °F 59.2 °F 30.1 in North 2 mph 3.1 mph 94.2% 0 in
06:09 61 °F 59.2 °F 30.1 in ENE 2 mph 5.2 mph 94.2% 0 in
06:14 61 °F 59.2 °F 30.1 in NE 2 mph 5 mph 94% 0 in
06:19 60.8 °F 59 °F 30.1 in NE 2.1 mph 5 mph 94% 0 in
06:24 60.8 °F 59.2 °F 30.1 in Este 2.4 mph 5.2 mph 94.6% 0 in
06:29 60.6 °F 58.8 °F 30.1 in SSE 2.5 mph 7.6 mph 94% 0 in
06:34 60.6 °F 58.8 °F 30.1 in SSE 3.1 mph 9.2 mph 94% 0 in
06:39 60.8 °F 59 °F 30.1 in Sur 3.7 mph 9 mph 94% 0 in
06:44 60.8 °F 59.2 °F 30.1 in Sur 6.2 mph 9.2 mph 94% 0 in
06:49 60.8 °F 59.2 °F 30.1 in Sur 6 mph 9.2 mph 94% 0 in
06:54 61 °F 59.2 °F 30.1 in SSO 5.4 mph 8.1 mph 94% 0 in
06:59 61.2 °F 59.4 °F 30.1 in SSO 5.3 mph 8.5 mph 94% 0 in
07:04 61.2 °F 59.4 °F 30.1 in SSO 4.7 mph 10 mph 94% 0 in
07:09 61.3 °F 59.4 °F 30.1 in SSO 5 mph 11.5 mph 93% 0 in
07:14 61.5 °F 59.4 °F 30.1 in SO 6.4 mph 12 mph 92.3% 0 in
07:19 61.9 °F 59.4 °F 30.1 in SSO 6.2 mph 10 mph 91.9% 0 in
07:24 62.1 °F 59.4 °F 30.1 in SSO 5.2 mph 9.2 mph 91% 0 in
07:29 62.1 °F 59.4 °F 30.1 in SSO 5.2 mph 10 mph 90.5% 0 in
07:34 62.2 °F 59.4 °F 30.1 in SO 5.2 mph 10.4 mph 90% 0 in
07:39 62.2 °F 59.4 °F 30.1 in SO 5 mph 8 mph 90% 0 in
07:44 62.4 °F 59.4 °F 30.1 in SO 4.3 mph 9.2 mph 89.8% 0 in
07:49 62.4 °F 59.2 °F 30.1 in OSO 4.3 mph 9.2 mph 89% 0.34 in
07:54 62.4 °F 59.2 °F 30.1 in SO 4.3 mph 9.2 mph 89% 0.34 in
07:59 62.8 °F 59.4 °F 30.1 in SO 4.5 mph 9 mph 89% 0.34 in
08:04 62.8 °F 59.5 °F 30.1 in SO 5.2 mph 7 mph 89% 0.34 in
08:09 63 °F 59.7 °F 30.1 in SO 5 mph 8.5 mph 89% 0.34 in
08:14 63 °F 59.5 °F 30.1 in SO 4 mph 9.2 mph 88.6% 0.34 in
08:19 63 °F 59.4 °F 30.1 in SO 4.3 mph 9.7 mph 88% 0.34 in
08:24 63.1 °F 59.5 °F 30.1 in SO 5.9 mph 10 mph 88% 0.34 in
08:29 63.1 °F 59.5 °F 30.1 in OSO 5.4 mph 7 mph 88% 0.34 in
08:34 63.3 °F 59.5 °F 30.1 in SO 3.1 mph 6.9 mph 87.7% 0.34 in
08:39 63.3 °F 59.4 °F 30.1 in SO 3.2 mph 7 mph 87% 0.34 in
08:44 63.5 °F 59.5 °F 30.1 in SSO 4 mph 7.4 mph 87% 0.34 in
08:49 63.7 °F 59.7 °F 30.1 in SSO 4 mph 7 mph 87% 0.34 in
08:54 63.7 °F 59.7 °F 30.1 in SSO 4 mph 6 mph 87% 0 in
08:59 63.7 °F 59.7 °F 30.1 in SO 4 mph 6 mph 87% 0 in
09:04 63.7 °F 59.7 °F 30.1 in SO 4 mph 6 mph 87.1% 0 in
09:09 63.9 °F 59.7 °F 30.1 in SO 3.9 mph 6.9 mph 87% 0 in
09:14 63.9 °F 59.9 °F 30.1 in SSO 3.6 mph 7 mph 87% 0 in
09:19 63.9 °F 59.9 °F 30.1 in SSO 3.7 mph 6.2 mph 87% 0 in
09:24 64 °F 60.1 °F 30.1 in SSO 4 mph 8.1 mph 87% 0 in
09:29 64 °F 59.9 °F 30.1 in SSO 4.2 mph 9.2 mph 86.2% 0 in
09:34 64 °F 59.9 °F 30.1 in SO 5.2 mph 9 mph 86% 0 in
09:39 64.2 °F 59.9 °F 30.1 in SSO 5 mph 7 mph 86% 0 in
09:44 64.4 °F 60.1 °F 30.1 in Sur 4 mph 6 mph 86% 0 in
09:49 64.6 °F 60.3 °F 30.1 in SO 3.9 mph 6 mph 86% 0 in
09:54 64.6 °F 60.3 °F 30.1 in NNE 3.1 mph 5 mph 86% 0 in
09:59 64.8 °F 60.4 °F 30.1 in North 2.9 mph 3.5 mph 86% 0 in
10:04 64.8 °F 60.4 °F 30.1 in Oeste 1.8 mph 4.6 mph 86% 0 in
10:09 64.8 °F 60.8 °F 30.1 in SSO 2 mph 5 mph 87% 0 in
10:14 64.8 °F 60.6 °F 30.1 in SSO 2.9 mph 6.2 mph 86.4% 0 in
10:19 64.8 °F 60.8 °F 30.1 in SSO 3 mph 7.4 mph 87% 0 in
10:24 64.8 °F 60.8 °F 30.1 in SSE 4.3 mph 7.6 mph 87% 0 in
10:29 64.9 °F 61 °F 30.1 in Sur 4.3 mph 8.1 mph 87% 0 in
10:34 64.9 °F 61 °F 30.1 in Sur 4.3 mph 8.1 mph 87% 0 in
10:39 65.1 °F 61.2 °F 30.1 in SSE 4.5 mph 8.1 mph 87% 0 in
10:44 65.1 °F 61.2 °F 30.1 in SSO 5.2 mph 8 mph 87% 0 in
10:49 65.3 °F 61.3 °F 30.2 in NO 4.8 mph 6.2 mph 87% 0 in
10:54 65.3 °F 61.3 °F 30.2 in North 2.9 mph 7.4 mph 87% 0 in
10:59 65.1 °F 61.5 °F 30.2 in NNE 3 mph 7 mph 87.9% 0 in
11:04 65.1 °F 61.5 °F 30.2 in SE 3.6 mph 6 mph 88% 0 in
11:09 65.1 °F 61.5 °F 30.2 in Sur 3.5 mph 8.1 mph 88% 0 in
11:14 65.1 °F 61.5 °F 30.2 in Sur 3.1 mph 8 mph 88% 0 in
11:19 65.1 °F 61.7 °F 30.2 in SE 3.4 mph 7.6 mph 88.5% 0.01 in
11:24 65.3 °F 62.1 °F 30.2 in SE 4.7 mph 8.5 mph 89% 0.01 in
11:29 65.3 °F 62.1 °F 30.2 in SSO 4.9 mph 9.7 mph 89.1% 0.02 in
11:34 65.3 °F 62.4 °F 30.2 in SO 5.9 mph 10 mph 90% 0.05 in
11:39 65.3 °F 62.4 °F 30.2 in SO 5.7 mph 9.7 mph 90% 0.05 in
11:44 65.1 °F 62.4 °F 30.2 in NNE 4.7 mph 10 mph 90.9% 0.07 in
11:49 64.9 °F 62.2 °F 30.2 in SSO 4.9 mph 12.7 mph 91% 0.08 in
11:54 64.9 °F 62.2 °F 30.2 in SO 5.9 mph 13 mph 91% 0.08 in
11:59 64.9 °F 62.4 °F 30.2 in Oeste 5.6 mph 12 mph 91.7% 0.08 in
12:04 64.9 °F 62.6 °F 30.2 in Oeste 4.3 mph 12 mph 92% 0.08 in
12:09 64.9 °F 62.6 °F 30.2 in Oeste 4.3 mph 12 mph 92% 0.1 in
12:14 65.1 °F 62.8 °F 30.2 in NNO 4.7 mph 7 mph 92% 0.23 in
12:19 65.1 °F 62.8 °F 30.2 in Este 4.3 mph 5 mph 92.1% 0.32 in
12:24 64.9 °F 63 °F 30.2 in NNO 2.4 mph 10.4 mph 93% 0.46 in
12:29 64.8 °F 62.8 °F 30.2 in Oeste 2.8 mph 10 mph 93.1% 0.54 in
12:34 64.8 °F 63 °F 30.2 in SSE 4.7 mph 8.5 mph 94% 0.56 in
12:39 64.8 °F 63 °F 30.2 in SSO 4.6 mph 9 mph 94% 0.63 in
12:44 64.8 °F 63 °F 30.2 in SSE 4 mph 6 mph 94.1% 0.63 in
12:49 64.8 °F 63.3 °F 30.2 in Sur 3.9 mph 6.9 mph 94.9% 0.64 in
12:54 64.9 °F 63.5 °F 30.2 in OSO 3.1 mph 7 mph 95% 0.65 in
12:59 64.9 °F 63.5 °F 30.2 in Oeste 3.2 mph 7 mph 95% 0.65 in
13:04 65.1 °F 63.7 °F 30.2 in Sur 3.6 mph 6 mph 95% 0.65 in
13:09 65.3 °F 63.9 °F 30.2 in SSE 3.5 mph 6.2 mph 95.4% 0.65 in
13:14 65.5 °F 64 °F 30.2 in Sur 3.1 mph 6.9 mph 95.2% 0.6 in
13:19 65.3 °F 63.9 °F 30.2 in SSO 3.4 mph 7.4 mph 95.2% 0.47 in
13:24 65.3 °F 64 °F 30.2 in SSO 4.7 mph 8.5 mph 95.7% 0.35 in
13:29 65.5 °F 64.2 °F 30.2 in SSO 4.8 mph 9.2 mph 96% 0.24 in
13:34 65.7 °F 64.6 °F 30.2 in ONO 5.4 mph 9 mph 96% 0.15 in
13:39 65.8 °F 64.8 °F 30.2 in NNE 5 mph 8.1 mph 96% 0.1 in
13:44 65.8 °F 64.8 °F 30.2 in NNO 2.9 mph 8 mph 96% 0.04 in
13:49 65.8 °F 64.8 °F 30.2 in NO 2.9 mph 6.2 mph 96% 0.02 in
13:54 65.8 °F 64.8 °F 30.2 in ONO 3.1 mph 6 mph 96% 0 in
13:59 66 °F 64.8 °F 30.2 in NO 2.9 mph 4.6 mph 96% 0 in
14:04 66 °F 64.8 °F 30.2 in NE 2 mph 7.4 mph 96% 0.01 in
14:09 66 °F 64.8 °F 30.2 in NE 2.2 mph 7 mph 96% 0.04 in
14:14 66 °F 64.8 °F 30.2 in ESE 3.1 mph 5 mph 96% 0.14 in
14:19 66 °F 64.9 °F 30.2 in ESE 3.1 mph 5.8 mph 96% 0.16 in
14:24 66.2 °F 64.9 °F 30.2 in NE 3.1 mph 6 mph 96% 0.16 in
14:29 66.2 °F 64.9 °F 30.2 in SE 3 mph 5.8 mph 96% 0.16 in
14:34 66.2 °F 64.9 °F 30.2 in Sur 2.4 mph 6 mph 96% 0.17 in
14:39 66.2 °F 64.9 °F 30.2 in ESE 2.3 mph 5.9 mph 96% 0.2 in
14:44 66.4 °F 65.1 °F 30.2 in ESE 2 mph 8.7 mph 96% 0.21 in
14:49 66.4 °F 65.1 °F 30.2 in Sur 2.5 mph 9.2 mph 96% 0.22 in
14:54 66 °F 64.9 °F 30.2 in OSO 4.7 mph 9 mph 96% 0.22 in
14:59 66.2 °F 65.1 °F 30.2 in ONO 4.5 mph 7 mph 96% 0.22 in
15:04 66.4 °F 65.1 °F 30.2 in Oeste 3.6 mph 7.4 mph 96% 0.22 in
15:09 66.4 °F 65.1 °F 30.2 in Oeste 3.7 mph 7.4 mph 96% 0.22 in
15:14 66.4 °F 65.1 °F 30.2 in Oeste 4 mph 7 mph 96% 0.18 in
15:19 66.4 °F 65.3 °F 30.2 in NO 3.7 mph 5 mph 96% 0.21 in
15:24 66.6 °F 65.5 °F 30.2 in NNE 2 mph 5.2 mph 96% 0.24 in
15:29 66.6 °F 65.5 °F 30.2 in ENE 2.1 mph 5 mph 96% 0.26 in
15:34 66.6 °F 65.5 °F 30.2 in Este 2.4 mph 5.2 mph 96.1% 0.28 in
15:39 66.6 °F 65.8 °F 30.2 in ENE 2.3 mph 8.5 mph 97% 0.3 in
15:44 66.9 °F 66 °F 30.2 in NE 1.8 mph 9.2 mph 96.9% 0.27 in
15:49 66.9 °F 65.8 °F 30.2 in NNE 2.3 mph 9 mph 96.3% 0.27 in
15:54 66.9 °F 65.8 °F 30.2 in NNE 4.7 mph 8.1 mph 96.3% 0.5 in
15:59 66.9 °F 66 °F 30.2 in NNO 4.5 mph 7 mph 97% 0.5 in
16:04 67.1 °F 66.2 °F 30.2 in NNO 3.6 mph 5 mph 97% 0.5 in
16:09 67.3 °F 66.4 °F 30.2 in NNO 3.3 mph 3.6 mph 97% 0.49 in
16:14 67.3 °F 66.4 °F 30.2 in NO 1.8 mph 4.6 mph 97% 0.49 in
16:19 67.5 °F 66.6 °F 30.2 in ONO 1.9 mph 5 mph 97% 0.37 in
16:24 67.5 °F 66.6 °F 30.1 in Oeste 2.4 mph 5 mph 97% 0.36 in
16:29 67.5 °F 66.6 °F 30.1 in Oeste 2.3 mph 5 mph 97% 0.31 in
16:34 67.5 °F 66.6 °F 30.1 in Oeste 1.8 mph 3.6 mph 97% 0.3 in
16:39 67.5 °F 66.6 °F 30.1 in Oeste 1.9 mph 4.6 mph 97% 0.26 in
16:44 67.6 °F 66.7 °F 30.1 in ONO 2 mph 5 mph 97% 0.25 in
16:49 67.6 °F 66.7 °F 30.1 in NO 1.9 mph 4.6 mph 97% 0.24 in
16:54 67.6 °F 66.7 °F 30.1 in ONO 1.4 mph 5 mph 96.8% 0.24 in
16:59 67.6 °F 66.7 °F 30.1 in ONO 1.5 mph 5 mph 96.6% 0 in
17:04 67.8 °F 66.9 °F 30.1 in NO 2 mph 5.2 mph 97% 0 in
17:09 67.6 °F 66.6 °F 30.1 in NE 2.4 mph 11.8 mph 96.2% 0 in
17:14 67.6 °F 66.6 °F 30.1 in NE 4 mph 13.7 mph 96% 0 in
17:19 67.8 °F 66.6 °F 30.1 in NE 4.6 mph 14 mph 95.7% 0 in
17:24 68.2 °F 66.7 °F 30.1 in ENE 7.6 mph 12.7 mph 95% 0 in
17:29 68.4 °F 66.7 °F 30.1 in ENE 7.4 mph 13 mph 94.3% 0 in
17:34 68.5 °F 66.6 °F 30.1 in ENE 6.4 mph 12 mph 93.7% 0 in
17:39 68.5 °F 66.4 °F 30.1 in NE 6.5 mph 12.5 mph 93% 0 in
17:44 68.7 °F 66.4 °F 30.1 in NE 6.9 mph 15 mph 92.4% 0 in
17:49 69.1 °F 66.4 °F 30.1 in NE 7 mph 15 mph 91.3% 0 in
17:54 69.1 °F 66 °F 30.1 in ENE 7.6 mph 14.7 mph 90.3% 0.03 in
17:59 69.1 °F 66 °F 30.1 in NE 7.3 mph 15 mph 90.4% 0.04 in
18:04 69.1 °F 66.4 °F 30.1 in ENE 6.4 mph 14 mph 91% 0.04 in
18:09 68.9 °F 66.2 °F 30.1 in NE 6.4 mph 12 mph 91% 0.04 in
18:14 68.9 °F 66.2 °F 30.1 in ENE 6.2 mph 10 mph 91% 0.04 in
18:19 68.9 °F 66.2 °F 30.1 in ENE 6.2 mph 12.7 mph 90.8% 0.04 in
18:24 69.1 °F 66 °F 30.1 in NE 6.2 mph 13 mph 90% 0.04 in
18:29 69.3 °F 66.2 °F 30.1 in ENE 6.3 mph 13 mph 90% 0.04 in
18:34 69.3 °F 65.8 °F 30.1 in NE 6.9 mph 12.7 mph 89.1% 0.04 in
18:39 69.4 °F 66 °F 30.1 in ENE 6.8 mph 13 mph 89% 0.04 in
18:44 69.4 °F 66.2 °F 30.1 in NE 6.2 mph 13 mph 89% 0.04 in
18:49 69.6 °F 66.2 °F 30.1 in ENE 6.2 mph 12.7 mph 89% 0.04 in
18:54 69.6 °F 66.2 °F 30.1 in NE 5.9 mph 13 mph 88.7% 0.04 in
18:59 69.8 °F 66.2 °F 30.1 in NE 6.1 mph 13.8 mph 88% 0.01 in
19:04 70 °F 66 °F 30.1 in NE 6.9 mph 14 mph 87.1% 0 in
19:09 70.2 °F 65.8 °F 30.1 in NE 7.3 mph 17.3 mph 86.3% 0 in
19:14 70.2 °F 65.8 °F 30.1 in NE 9.7 mph 17.5 mph 86% 0 in
19:19 70.2 °F 65.8 °F 30.1 in NE 9.8 mph 17.5 mph 86% 0 in
19:24 70.2 °F 65.8 °F 30.1 in NE 10.2 mph 17 mph 86% 0 in
19:29 70 °F 65.8 °F 30.1 in NE 9.8 mph 13 mph 86.6% 0.01 in
19:34 69.6 °F 65.8 °F 30.1 in NE 7.6 mph 12.7 mph 87.6% 0.01 in
19:39 69.4 °F 65.7 °F 30.1 in NE 7.8 mph 17.3 mph 88% 0.01 in
19:44 69.3 °F 65.8 °F 30.1 in NE 8.7 mph 17 mph 88.9% 0.01 in
19:49 69.1 °F 65.8 °F 30.1 in ENE 8.3 mph 12.3 mph 89.3% 0.02 in
19:54 68.9 °F 65.8 °F 30.1 in NE 6.4 mph 13.8 mph 90% 0.03 in
19:59 68.7 °F 66 °F 30.1 in NE 6.6 mph 17.3 mph 90.9% 0.03 in
20:04 68.7 °F 66 °F 30.1 in NE 7.6 mph 18.4 mph 91% 0.04 in
20:09 68.7 °F 66 °F 30.1 in ENE 7.9 mph 18 mph 91% 0.05 in
20:14 68.5 °F 65.8 °F 30.1 in ENE 9.2 mph 16.1 mph 91% 0.06 in
20:19 68.5 °F 65.7 °F 30.1 in NE 9.1 mph 16.3 mph 91% 0.06 in
20:24 68.4 °F 65.7 °F 30.1 in NE 8.5 mph 18.4 mph 91% 0.07 in
20:29 68.4 °F 65.7 °F 30.1 in NE 9.1 mph 20.7 mph 91% 0.07 in
20:34 68.2 °F 65.5 °F 30.2 in NE 11.8 mph 21.9 mph 91% 0.09 in
20:39 67.8 °F 65.3 °F 30.2 in NE 11.9 mph 22 mph 91.6% 0.15 in
20:44 67.6 °F 65.3 °F 30.2 in NE 12.5 mph 20.8 mph 92.4% 0.17 in
20:49 67.5 °F 65.3 °F 30.2 in NE 12.7 mph 26.5 mph 93% 0.2 in
20:54 67.3 °F 65.1 °F 30.2 in NE 13.7 mph 26 mph 93% 0.2 in
20:59 66.9 °F 64.8 °F 30.2 in NE 13.2 mph 22 mph 93% 0.19 in
21:04 66.7 °F 64.6 °F 30.2 in NE 11.4 mph 15 mph 93% 0.19 in
21:09 66.4 °F 64.4 °F 30.2 in NE 10.7 mph 13 mph 93% 0.18 in
21:14 66.2 °F 64 °F 30.2 in ENE 7.4 mph 13 mph 93% 0.18 in
21:19 66.2 °F 64 °F 30.2 in Este 7 mph 8.1 mph 93% 0.2 in
21:24 66.2 °F 64.2 °F 30.2 in ENE 4.7 mph 12.3 mph 93% 0.24 in
21:29 66.4 °F 64.4 °F 30.2 in NE 4.8 mph 13 mph 93.5% 0.25 in
21:34 66.6 °F 64.8 °F 30.2 in NE 5.4 mph 13 mph 94% 0.26 in
21:39 66.6 °F 64.8 °F 30.2 in NE 5.5 mph 13 mph 94% 0.22 in
21:44 66.6 °F 64.8 °F 30.2 in NNE 6.2 mph 9.2 mph 94% 0.17 in
21:49 66.6 °F 64.8 °F 30.2 in NNO 5.8 mph 9 mph 94% 0.14 in
21:54 66.6 °F 64.9 °F 30.2 in North 4 mph 6 mph 94.8% 0.11 in
21:59 66.6 °F 65.1 °F 30.2 in NE 3.7 mph 6 mph 95% 0.11 in
22:04 66.7 °F 65.3 °F 30.2 in ENE 2.4 mph 5 mph 95% 0.11 in
22:09 66.7 °F 65.3 °F 30.2 in NNE 2.3 mph 4 mph 95% 0.11 in
22:14 66.7 °F 65.3 °F 30.2 in NNE 2 mph 4 mph 95% 0.11 in
22:19 66.7 °F 65.3 °F 30.2 in ENE 2 mph 4 mph 95% 0.09 in
22:24 66.7 °F 65.3 °F 30.2 in ESE 1.8 mph 4.6 mph 95% 0.05 in
22:29 66.9 °F 65.3 °F 30.2 in ESE 1.9 mph 5 mph 95% 0.02 in
22:34 66.9 °F 65.3 °F 30.2 in SE 2 mph 5 mph 95% 0 in
22:39 66.7 °F 65.3 °F 30.2 in ENE 1.7 mph 5 mph 95% 0 in
22:44 66.7 °F 65.3 °F 30.2 in Calm   3.6 mph 95% 0 in
22:49 66.7 °F 65.3 °F 30.2 in Calm   4 mph 95% 0 in
22:54 66.7 °F 65.3 °F 30.2 in Calm   1.8 mph 95% 0 in
22:59 66.7 °F 65.3 °F 30.2 in NNE 0.3 mph 4.3 mph 95% 0 in
23:04 66.7 °F 65.3 °F 30.2 in ENE 1.4 mph 10 mph 95% 0 in
23:09 66.6 °F 64.9 °F 30.2 in NE 1.7 mph 10.4 mph 94.6% 0 in
23:14 66.4 °F 64.6 °F 30.2 in ENE 3.1 mph 8.5 mph 94% 0 in
23:19 66.6 °F 64.6 °F 30.2 in NE 3.2 mph 9 mph 93.1% 0 in
23:24 66.6 °F 64.6 °F 30.2 in SE 4 mph 6 mph 93% 0 in
23:29 66.6 °F 64.6 °F 30.2 in SE 3.7 mph 5 mph 93% 0.01 in
23:34 66.6 °F 64.4 °F 30.2 in Este 2.4 mph 6.2 mph 93% 0.01 in
23:39 66.6 °F 64.6 °F 30.2 in Este 2.6 mph 6.9 mph 93% 0.01 in
23:44 66.4 °F 64 °F 30.2 in NE 3.6 mph 13.8 mph 92.1% 0.02 in
23:49 66 °F 63.7 °F 30.2 in NE 4 mph 14 mph 92% 0.03 in
23:54 66 °F 63.7 °F 30.2 in North 6.2 mph 10 mph 92.2% 0.05 in
23:59 65.8 °F 63.9 °F 30.2 in ONO 5.8 mph 8 mph 93% 0.07 in
Murcia-Puente Tocinos, España
Compliments of Weather Underground - 3.5 mb

La estación de MeteoMurcia.com, publica sus datos en los siguientes proyectos:

Weather Underground PWS IMURCIAP2 Meteoclimatic www.awekas.at

W3Counter
Web Analytics